Sao Jorge — CSIA — position and weather

sailwx.info

Track history (hours):
 
Tides and Currents Weather Stations Pressure Air Temp Water Temp Dewpoint Dewpoint Depression Visibility Wind Speed Wind Dir Waves Ship Positions

Sao Jorge

Last reported at 2016-May-03 21:33 UTC. Time now 2016-May-03 23:57 UTC.
Position N 38°41' W 009°12'.

Length 59 m; draft 24.8 m.

Type: Passenger vessel. MMSI: 263701790.

Date/timePositionNaut miles runAvg speedWind from/ knotsBaromVisibWave heightAir tempDewpointWater temp
2016-May-03 21:33N 38°41' W 009°12'1 1.1
2016-May-03 20:33N 38°41' W 009°14'0 0.1
2016-May-03 19:32N 38°41' W 009°14'2 1.9
2016-May-03 18:31N 38°42' W 009°12'0 0.3
2016-May-03 17:33N 38°41' W 009°12'0 0.2
2016-May-03 16:33N 38°41' W 009°12'0 0.1
2016-May-03 15:33N 38°41' W 009°12'0 0.2
2016-May-03 14:33N 38°42' W 009°12'1 1.1
2016-May-03 13:34N 38°41' W 009°12'1 1.0
2016-May-03 12:34N 38°42' W 009°12'0 0.2
2016-May-03 11:33N 38°41' W 009°12'0 0.1
2016-May-03 10:33N 38°42' W 009°12'2 1.8
2016-May-03 09:34N 38°40' W 009°14'0 0.1
2016-May-03 08:33N 38°41' W 009°14'0 0.1
2016-May-03 07:33N 38°41' W 009°14'0 0.1
2016-May-03 06:34N 38°41' W 009°13'1 0.7
2016-May-03 05:33N 38°41' W 009°13'0 0.0
2016-May-02 21:33N 38°41' W 009°12'1 1.0
2016-May-02 20:33N 38°41' W 009°14'0 0.2
2016-May-02 19:33N 38°41' W 009°14'2 1.5
2016-May-02 18:33N 38°41' W 009°12'0 0.2
2016-May-02 17:33N 38°42' W 009°12'0 0.2
2016-May-02 16:33N 38°41' W 009°12'0 0.2
2016-May-02 15:33N 38°41' W 009°12'0 0.3
2016-May-02 14:33N 38°42' W 009°12'1 1.0
2016-May-02 13:33N 38°41' W 009°12'1 0.9
2016-May-02 12:33N 38°42' W 009°12'0 0.2
2016-May-02 11:33N 38°42' W 009°12'3 2.4
2016-May-02 10:28N 38°41' W 009°09'0 0.0
2016-May-02 09:33N 38°41' W 009°09'4 3.8
2016-May-02 08:33N 38°41' W 009°14'0 0.1
2016-May-02 07:33N 38°41' W 009°14'0 0.0
2016-May-02 06:33N 38°41' W 009°14'1 0.8
2016-May-02 05:33N 38°41' W 009°13'0 0.0
2016-May-01 21:08N 38°41' W 009°12'1 1.6
2016-May-01 20:31N 38°42' W 009°12'2 1.9
2016-May-01 19:34N 38°40' W 009°14'0 0.1
2016-May-01 18:34N 38°41' W 009°14'2 1.8
2016-May-01 17:34N 38°42' W 009°12'0 0.2
2016-May-01 16:33N 38°41' W 009°12'0 0.1
2016-May-01 15:33N 38°41' W 009°12'0 0.3
2016-May-01 14:33N 38°42' W 009°12'1 1.1
2016-May-01 13:33N 38°41' W 009°12'1 1.1
2016-May-01 12:33N 38°41' W 009°14'0 0.0
2016-May-01 11:33N 38°41' W 009°14'0 0.0
2016-May-01 10:33N 38°41' W 009°14'0 0.0
2016-May-01 09:33N 38°40' W 009°14'2 1.9
2016-May-01 08:33N 38°42' W 009°12'0 0.0
2016-May-01 07:33N 38°42' W 009°12'1 1.0
2016-May-01 06:33N 38°41' W 009°12'0 0.0
2016-Apr-30 21:05N 38°41' W 009°12'1 1.3
2016-Apr-30 20:33N 38°41' W 009°12'1 1.4
2016-Apr-30 19:33N 38°40' W 009°14'0 0.0
2016-Apr-30 18:33N 38°41' W 009°14'2 1.7
2016-Apr-30 17:33N 38°41' W 009°12'0 0.1
2016-Apr-30 16:33N 38°41' W 009°12'0 0.5
2016-Apr-30 15:33N 38°42' W 009°12'0 0.0
2016-Apr-30 14:33N 38°42' W 009°12'1 1.1
2016-Apr-30 13:33N 38°41' W 009°12'1 1.2
2016-Apr-30 12:33N 38°40' W 009°14'0 0.2
2016-Apr-30 11:33N 38°41' W 009°14'0 0.2
2016-Apr-30 10:33N 38°41' W 009°14'2 1.9
2016-Apr-30 09:34N 38°41' W 009°12'0 0.3
2016-Apr-30 08:33N 38°41' W 009°12'0 0.1
2016-Apr-30 07:33N 38°42' W 009°12'0 0.2
2016-Apr-30 06:33N 38°41' W 009°12'1 0.7
2016-Apr-30 05:33N 38°41' W 009°12'0 0.0
2016-Apr-29 21:32N 38°41' W 009°12'1 1.0
2016-Apr-29 20:33N 38°41' W 009°14'0 0.2
2016-Apr-29 19:33N 38°40' W 009°14'2 1.7
2016-Apr-29 18:33N 38°41' W 009°12'0 0.1
2016-Apr-29 17:33N 38°41' W 009°12'0 0.1
2016-Apr-29 16:33N 38°41' W 009°12'0 0.1
2016-Apr-29 15:33N 38°41' W 009°12'0 0.2
2016-Apr-29 14:33N 38°42' W 009°12'1 0.9
2016-Apr-29 13:33N 38°41' W 009°12'1 1.0
2016-Apr-29 12:34N 38°42' W 009°12'0 0.0
2016-Apr-29 11:31N 38°42' W 009°12'0 0.2
2016-Apr-29 10:33N 38°41' W 009°12'2 1.8
2016-Apr-29 09:33N 38°40' W 009°14'0 0.1
2016-Apr-29 08:33N 38°41' W 009°14'0 0.0
2016-Apr-29 07:33N 38°41' W 009°14'0 0.2
2016-Apr-29 06:33N 38°41' W 009°14'1 0.7
2016-Apr-29 05:33N 38°41' W 009°13'0 0.0
2016-Apr-28 21:33N 38°41' W 009°12'1 0.9
2016-Apr-28 20:33N 38°41' W 009°14'0 0.2
2016-Apr-28 19:33N 38°41' W 009°14'2 1.6
2016-Apr-28 18:33N 38°41' W 009°12'0 0.1
2016-Apr-28 17:34N 38°41' W 009°12'0 0.2
2016-Apr-28 16:33N 38°41' W 009°12'0 0.2
2016-Apr-28 15:33N 38°42' W 009°12'0 0.1
2016-Apr-28 14:33N 38°42' W 009°12'1 0.9
2016-Apr-28 13:33N 38°41' W 009°12'1 0.9
2016-Apr-28 12:33N 38°42' W 009°12'0 0.1
2016-Apr-28 11:33N 38°42' W 009°12'0 0.0
2016-Apr-28 10:33N 38°42' W 009°12'2 1.9
2016-Apr-28 09:33N 38°40' W 009°14'0 0.2
2016-Apr-28 08:33N 38°41' W 009°14'0 0.1
2016-Apr-28 07:33N 38°41' W 009°14'0 0.1
2016-Apr-28 06:33N 38°41' W 009°14'1 1.0
2016-Apr-28 05:33N 38°41' W 009°13'0 0.0
2016-Apr-27 21:33N 38°41' W 009°12'1 1.0
2016-Apr-27 20:33N 38°41' W 009°14'0 0.1
2016-Apr-27 19:33N 38°41' W 009°14'2 1.7
2016-Apr-27 18:32N 38°42' W 009°12'0 0.3
2016-Apr-27 17:33N 38°41' W 009°12'0 0.1
2016-Apr-27 16:33N 38°41' W 009°12'0 0.1
2016-Apr-27 15:33N 38°41' W 009°12'0 0.1
2016-Apr-27 14:33N 38°41' W 009°12'1 0.8
2016-Apr-27 13:33N 38°41' W 009°12'1 0.8
2016-Apr-27 12:33N 38°41' W 009°12'0 0.3
2016-Apr-27 11:34N 38°42' W 009°12'0 0.1
2016-Apr-27 10:33N 38°42' W 009°12'2 2.0
2016-Apr-27 09:33N 38°40' W 009°14'0 0.0
2016-Apr-27 08:33N 38°40' W 009°14'0 0.1
2016-Apr-27 07:33N 38°41' W 009°14'0 0.2
2016-Apr-27 06:33N 38°41' W 009°14'1 0.8
2016-Apr-27 05:33N 38°41' W 009°13'0 0.0
2016-Apr-26 21:33N 38°41' W 009°12'1 0.9
2016-Apr-26 20:33N 38°41' W 009°14'0 0.2
2016-Apr-26 19:34N 38°41' W 009°14'1 1.4
2016-Apr-26 18:34N 38°41' W 009°12'0 0.4
2016-Apr-26 17:34N 38°41' W 009°12'0 0.2
2016-Apr-26 16:33N 38°42' W 009°12'0 0.2
2016-Apr-26 15:33N 38°41' W 009°12'0 0.3
2016-Apr-26 14:34N 38°42' W 009°12'1 1.0
2016-Apr-26 13:33N 38°41' W 009°12'1 0.8
2016-Apr-26 12:33N 38°42' W 009°12'0 0.2
2016-Apr-26 11:33N 38°42' W 009°12'0 0.1
2016-Apr-26 10:33N 38°42' W 009°12'2 2.0
2016-Apr-26 09:33N 38°40' W 009°14'0 0.1
2016-Apr-26 08:32N 38°41' W 009°14'0 0.2
2016-Apr-26 07:33N 38°41' W 009°14'0 0.1
2016-Apr-26 06:33N 38°41' W 009°14'1 0.8
2016-Apr-26 05:33N 38°41' W 009°13'0 0.0
2016-Apr-25 21:10N 38°41' W 009°12'1 1.2
2016-Apr-25 20:33N 38°41' W 009°12'1 1.5
2016-Apr-25 19:33N 38°40' W 009°14'0 0.2
2016-Apr-25 18:33N 38°41' W 009°14'2 1.7
2016-Apr-25 17:33N 38°42' W 009°12'0 0.0
2016-Apr-25 16:33N 38°42' W 009°12'0 0.4
2016-Apr-25 15:33N 38°41' W 009°12'0 0.4
2016-Apr-25 14:33N 38°42' W 009°12'1 1.0
2016-Apr-25 13:33N 38°41' W 009°12'1 1.1
2016-Apr-25 12:33N 38°41' W 009°14'0 0.0
2016-Apr-25 11:33N 38°40' W 009°14'0 0.1
2016-Apr-25 10:33N 38°41' W 009°14'0 0.1
2016-Apr-25 09:33N 38°41' W 009°14'2 1.7
2016-Apr-25 08:33N 38°42' W 009°12'0 0.0
2016-Apr-25 07:33N 38°42' W 009°12'1 1.0
2016-Apr-25 06:33N 38°41' W 009°12'0 0.0
2016-Apr-24 21:08N 38°41' W 009°12'1 1.7
2016-Apr-24 20:33N 38°42' W 009°12'2 1.9
2016-Apr-24 19:33N 38°40' W 009°14'0 0.0
2016-Apr-24 18:33N 38°40' W 009°14'2 1.9
2016-Apr-24 17:33N 38°42' W 009°12'0 0.2
2016-Apr-24 16:33N 38°41' W 009°12'0 0.1
2016-Apr-24 15:33N 38°41' W 009°12'0 0.3
2016-Apr-24 14:33N 38°42' W 009°12'1 1.0
2016-Apr-24 13:33N 38°41' W 009°12'1 0.9
2016-Apr-24 12:33N 38°41' W 009°14'0 0.1
2016-Apr-24 11:33N 38°41' W 009°14'0 0.0
2016-Apr-24 10:33N 38°41' W 009°14'0 0.1
2016-Apr-24 09:33N 38°41' W 009°14'2 1.9
2016-Apr-24 08:33N 38°42' W 009°12'0 0.2
2016-Apr-24 07:33N 38°41' W 009°12'1 0.9
2016-Apr-24 06:33N 38°41' W 009°12'  
Track history (hours):
 
Tides and Currents Weather Stations Pressure Air Temp Water Temp Dewpoint Dewpoint Depression Visibility Wind Speed Wind Dir Waves Ship Positions

Sao Jorge

Last reported at 2016-May-03 21:33 UTC. Time now 2016-May-03 23:57 UTC.
Position N 38°41' W 009°12'.

Length 59 m; draft 24.8 m.

Type: Passenger vessel. MMSI: 263701790.

Date/timePositionNaut miles runAvg speedWind from/ knotsBaromVisibWave heightAir tempDewpointWater temp
2016-May-03 21:33N 38°41' W 009°12'1 1.1
2016-May-03 20:33N 38°41' W 009°14'0 0.1
2016-May-03 19:32N 38°41' W 009°14'2 1.9
2016-May-03 18:31N 38°42' W 009°12'0 0.3
2016-May-03 17:33N 38°41' W 009°12'0 0.2
2016-May-03 16:33N 38°41' W 009°12'0 0.1
2016-May-03 15:33N 38°41' W 009°12'0 0.2
2016-May-03 14:33N 38°42' W 009°12'1 1.1
2016-May-03 13:34N 38°41' W 009°12'1 1.0
2016-May-03 12:34N 38°42' W 009°12'0 0.2
2016-May-03 11:33N 38°41' W 009°12'0 0.1
2016-May-03 10:33N 38°42' W 009°12'2 1.8
2016-May-03 09:34N 38°40' W 009°14'0 0.1
2016-May-03 08:33N 38°41' W 009°14'0 0.1
2016-May-03 07:33N 38°41' W 009°14'0 0.1
2016-May-03 06:34N 38°41' W 009°13'1 0.7
2016-May-03 05:33N 38°41' W 009°13'0 0.0
2016-May-02 21:33N 38°41' W 009°12'1 1.0
2016-May-02 20:33N 38°41' W 009°14'0 0.2
2016-May-02 19:33N 38°41' W 009°14'2 1.5
2016-May-02 18:33N 38°41' W 009°12'0 0.2
2016-May-02 17:33N 38°42' W 009°12'0 0.2
2016-May-02 16:33N 38°41' W 009°12'0 0.2
2016-May-02 15:33N 38°41' W 009°12'0 0.3
2016-May-02 14:33N 38°42' W 009°12'1 1.0
2016-May-02 13:33N 38°41' W 009°12'1 0.9
2016-May-02 12:33N 38°42' W 009°12'0 0.2
2016-May-02 11:33N 38°42' W 009°12'3 2.4
2016-May-02 10:28N 38°41' W 009°09'0 0.0
2016-May-02 09:33N 38°41' W 009°09'4 3.8
2016-May-02 08:33N 38°41' W 009°14'0 0.1
2016-May-02 07:33N 38°41' W 009°14'0 0.0
2016-May-02 06:33N 38°41' W 009°14'1 0.8
2016-May-02 05:33N 38°41' W 009°13'0 0.0
2016-May-01 21:08N 38°41' W 009°12'1 1.6
2016-May-01 20:31N 38°42' W 009°12'2 1.9
2016-May-01 19:34N 38°40' W 009°14'0 0.1
2016-May-01 18:34N 38°41' W 009°14'2 1.8
2016-May-01 17:34N 38°42' W 009°12'0 0.2
2016-May-01 16:33N 38°41' W 009°12'0 0.1
2016-May-01 15:33N 38°41' W 009°12'0 0.3
2016-May-01 14:33N 38°42' W 009°12'1 1.1
2016-May-01 13:33N 38°41' W 009°12'1 1.1
2016-May-01 12:33N 38°41' W 009°14'0 0.0
2016-May-01 11:33N 38°41' W 009°14'0 0.0
2016-May-01 10:33N 38°41' W 009°14'0 0.0
2016-May-01 09:33N 38°40' W 009°14'2 1.9
2016-May-01 08:33N 38°42' W 009°12'0 0.0
2016-May-01 07:33N 38°42' W 009°12'1 1.0
2016-May-01 06:33N 38°41' W 009°12'0 0.0
2016-Apr-30 21:05N 38°41' W 009°12'1 1.3
2016-Apr-30 20:33N 38°41' W 009°12'1 1.4
2016-Apr-30 19:33N 38°40' W 009°14'0 0.0
2016-Apr-30 18:33N 38°41' W 009°14'2 1.7
2016-Apr-30 17:33N 38°41' W 009°12'0 0.1
2016-Apr-30 16:33N 38°41' W 009°12'0 0.5
2016-Apr-30 15:33N 38°42' W 009°12'0 0.0
2016-Apr-30 14:33N 38°42' W 009°12'1 1.1
2016-Apr-30 13:33N 38°41' W 009°12'1 1.2
2016-Apr-30 12:33N 38°40' W 009°14'0 0.2
2016-Apr-30 11:33N 38°41' W 009°14'0 0.2
2016-Apr-30 10:33N 38°41' W 009°14'2 1.9
2016-Apr-30 09:34N 38°41' W 009°12'0 0.3
2016-Apr-30 08:33N 38°41' W 009°12'0 0.1
2016-Apr-30 07:33N 38°42' W 009°12'0 0.2
2016-Apr-30 06:33N 38°41' W 009°12'1 0.7
2016-Apr-30 05:33N 38°41' W 009°12'0 0.0
2016-Apr-29 21:32N 38°41' W 009°12'1 1.0
2016-Apr-29 20:33N 38°41' W 009°14'0 0.2
2016-Apr-29 19:33N 38°40' W 009°14'2 1.7
2016-Apr-29 18:33N 38°41' W 009°12'0 0.1
2016-Apr-29 17:33N 38°41' W 009°12'0 0.1
2016-Apr-29 16:33N 38°41' W 009°12'0 0.1
2016-Apr-29 15:33N 38°41' W 009°12'0 0.2
2016-Apr-29 14:33N 38°42' W 009°12'1 0.9
2016-Apr-29 13:33N 38°41' W 009°12'1 1.0
2016-Apr-29 12:34N 38°42' W 009°12'0 0.0
2016-Apr-29 11:31N 38°42' W 009°12'0 0.2
2016-Apr-29 10:33N 38°41' W 009°12'2 1.8
2016-Apr-29 09:33N 38°40' W 009°14'0 0.1
2016-Apr-29 08:33N 38°41' W 009°14'0 0.0
2016-Apr-29 07:33N 38°41' W 009°14'0 0.2
2016-Apr-29 06:33N 38°41' W 009°14'1 0.7
2016-Apr-29 05:33N 38°41' W 009°13'0 0.0
2016-Apr-28 21:33N 38°41' W 009°12'1 0.9
2016-Apr-28 20:33N 38°41' W 009°14'0 0.2
2016-Apr-28 19:33N 38°41' W 009°14'2 1.6
2016-Apr-28 18:33N 38°41' W 009°12'0 0.1
2016-Apr-28 17:34N 38°41' W 009°12'0 0.2
2016-Apr-28 16:33N 38°41' W 009°12'0 0.2
2016-Apr-28 15:33N 38°42' W 009°12'0 0.1
2016-Apr-28 14:33N 38°42' W 009°12'1 0.9
2016-Apr-28 13:33N 38°41' W 009°12'1 0.9
2016-Apr-28 12:33N 38°42' W 009°12'0 0.1
2016-Apr-28 11:33N 38°42' W 009°12'0 0.0
2016-Apr-28 10:33N 38°42' W 009°12'2 1.9
2016-Apr-28 09:33N 38°40' W 009°14'0 0.2
2016-Apr-28 08:33N 38°41' W 009°14'0 0.1
2016-Apr-28 07:33N 38°41' W 009°14'0 0.1
2016-Apr-28 06:33N 38°41' W 009°14'1 1.0
2016-Apr-28 05:33N 38°41' W 009°13'0 0.0
2016-Apr-27 21:33N 38°41' W 009°12'1 1.0
2016-Apr-27 20:33N 38°41' W 009°14'0 0.1
2016-Apr-27 19:33N 38°41' W 009°14'2 1.7
2016-Apr-27 18:32N 38°42' W 009°12'0 0.3
2016-Apr-27 17:33N 38°41' W 009°12'0 0.1
2016-Apr-27 16:33N 38°41' W 009°12'0 0.1
2016-Apr-27 15:33N 38°41' W 009°12'0 0.1
2016-Apr-27 14:33N 38°41' W 009°12'1 0.8
2016-Apr-27 13:33N 38°41' W 009°12'1 0.8
2016-Apr-27 12:33N 38°41' W 009°12'0 0.3
2016-Apr-27 11:34N 38°42' W 009°12'0 0.1
2016-Apr-27 10:33N 38°42' W 009°12'2 2.0
2016-Apr-27 09:33N 38°40' W 009°14'0 0.0
2016-Apr-27 08:33N 38°40' W 009°14'0 0.1
2016-Apr-27 07:33N 38°41' W 009°14'0 0.2
2016-Apr-27 06:33N 38°41' W 009°14'1 0.8
2016-Apr-27 05:33N 38°41' W 009°13'0 0.0
2016-Apr-26 21:33N 38°41' W 009°12'1 0.9
2016-Apr-26 20:33N 38°41' W 009°14'0 0.2
2016-Apr-26 19:34N 38°41' W 009°14'1 1.4
2016-Apr-26 18:34N 38°41' W 009°12'0 0.4
2016-Apr-26 17:34N 38°41' W 009°12'0 0.2
2016-Apr-26 16:33N 38°42' W 009°12'0 0.2
2016-Apr-26 15:33N 38°41' W 009°12'0 0.3
2016-Apr-26 14:34N 38°42' W 009°12'1 1.0
2016-Apr-26 13:33N 38°41' W 009°12'1 0.8
2016-Apr-26 12:33N 38°42' W 009°12'0 0.2
2016-Apr-26 11:33N 38°42' W 009°12'0 0.1
2016-Apr-26 10:33N 38°42' W 009°12'2 2.0
2016-Apr-26 09:33N 38°40' W 009°14'0 0.1
2016-Apr-26 08:32N 38°41' W 009°14'0 0.2
2016-Apr-26 07:33N 38°41' W 009°14'0 0.1
2016-Apr-26 06:33N 38°41' W 009°14'1 0.8
2016-Apr-26 05:33N 38°41' W 009°13'0 0.0
2016-Apr-25 21:10N 38°41' W 009°12'1 1.2
2016-Apr-25 20:33N 38°41' W 009°12'1 1.5
2016-Apr-25 19:33N 38°40' W 009°14'0 0.2
2016-Apr-25 18:33N 38°41' W 009°14'2 1.7
2016-Apr-25 17:33N 38°42' W 009°12'0 0.0
2016-Apr-25 16:33N 38°42' W 009°12'0 0.4
2016-Apr-25 15:33N 38°41' W 009°12'0 0.4
2016-Apr-25 14:33N 38°42' W 009°12'1 1.0
2016-Apr-25 13:33N 38°41' W 009°12'1 1.1
2016-Apr-25 12:33N 38°41' W 009°14'0 0.0
2016-Apr-25 11:33N 38°40' W 009°14'0 0.1
2016-Apr-25 10:33N 38°41' W 009°14'0 0.1
2016-Apr-25 09:33N 38°41' W 009°14'2 1.7
2016-Apr-25 08:33N 38°42' W 009°12'0 0.0
2016-Apr-25 07:33N 38°42' W 009°12'1 1.0
2016-Apr-25 06:33N 38°41' W 009°12'0 0.0
2016-Apr-24 21:08N 38°41' W 009°12'1 1.7
2016-Apr-24 20:33N 38°42' W 009°12'2 1.9
2016-Apr-24 19:33N 38°40' W 009°14'0 0.0
2016-Apr-24 18:33N 38°40' W 009°14'2 1.9
2016-Apr-24 17:33N 38°42' W 009°12'0 0.2
2016-Apr-24 16:33N 38°41' W 009°12'0 0.1
2016-Apr-24 15:33N 38°41' W 009°12'0 0.3
2016-Apr-24 14:33N 38°42' W 009°12'1 1.0
2016-Apr-24 13:33N 38°41' W 009°12'1 0.9
2016-Apr-24 12:33N 38°41' W 009°14'0 0.1
2016-Apr-24 11:33N 38°41' W 009°14'0 0.0
2016-Apr-24 10:33N 38°41' W 009°14'0 0.1
2016-Apr-24 09:33N 38°41' W 009°14'2 1.9
2016-Apr-24 08:33N 38°42' W 009°12'0 0.2
2016-Apr-24 07:33N 38°41' W 009°12'1 0.9
2016-Apr-24 06:33N 38°41' W 009°12'  

Dump ship's entire track history